createdAt,value
2022-08-30T00:00:41.198Z,996.04
2022-08-30T00:01:41.223Z,995.98
2022-08-30T00:02:41.535Z,996.03
2022-08-30T00:03:41.367Z,996.03
2022-08-30T00:04:41.165Z,996.03
2022-08-30T00:05:41.371Z,996.05
2022-08-30T00:06:41.150Z,996.06
2022-08-30T00:07:41.142Z,996.08
2022-08-30T00:08:41.149Z,996.06
2022-08-30T00:09:41.137Z,996.07
2022-08-30T00:10:41.118Z,996.04
2022-08-30T00:11:41.116Z,996.02
2022-08-30T00:12:41.106Z,996.02
2022-08-30T00:13:41.144Z,996.05
2022-08-30T00:14:41.147Z,996.05
2022-08-30T00:15:41.206Z,996.03
2022-08-30T00:16:41.116Z,996.04
2022-08-30T00:17:41.107Z,996.06
2022-08-30T00:18:41.080Z,996.06
2022-08-30T00:19:41.107Z,996.06
2022-08-30T00:20:41.077Z,996.08
2022-08-30T00:21:41.059Z,996.06
2022-08-30T00:22:41.073Z,996.06
2022-08-30T00:23:41.056Z,996.02
2022-08-30T00:24:41.073Z,996.03
2022-08-30T00:25:41.033Z,995.98
2022-08-30T00:26:41.044Z,996.00
2022-08-30T00:27:41.014Z,996.02
2022-08-30T00:28:41.003Z,996.00
2022-08-30T00:29:40.994Z,996.01
2022-08-30T00:30:41.119Z,996.03
2022-08-30T00:31:40.978Z,996.03
2022-08-30T00:32:40.980Z,996.04
2022-08-30T00:33:40.967Z,996.05
2022-08-30T00:34:41.183Z,996.02
2022-08-30T00:35:40.965Z,996.00
2022-08-30T00:36:40.944Z,995.96
2022-08-30T00:37:40.949Z,995.98
2022-08-30T00:38:40.940Z,995.95
2022-08-30T00:39:40.923Z,995.99
2022-08-30T00:40:40.958Z,995.97
2022-08-30T00:41:40.900Z,995.98
2022-08-30T00:42:40.918Z,995.96
2022-08-30T00:43:41.001Z,995.95
2022-08-30T00:44:40.938Z,995.98
2022-08-30T00:45:40.877Z,995.97
2022-08-30T00:46:40.966Z,995.98
2022-08-30T00:47:40.924Z,995.98
2022-08-30T00:48:41.181Z,995.97
2022-08-30T00:49:40.857Z,995.96
2022-08-30T00:50:40.893Z,995.99
2022-08-30T00:51:40.860Z,995.94
2022-08-30T00:52:40.861Z,995.94
2022-08-30T00:53:40.861Z,995.96
2022-08-30T00:54:40.834Z,995.97
2022-08-30T00:55:41.966Z,995.93
2022-08-30T00:56:40.827Z,995.92
2022-08-30T00:57:40.828Z,995.93
2022-08-30T00:58:40.825Z,995.93
2022-08-30T00:59:40.784Z,995.95
2022-08-30T01:00:40.789Z,995.94
2022-08-30T01:01:40.784Z,995.94
2022-08-30T01:02:40.812Z,995.95
2022-08-30T01:03:40.762Z,995.93
2022-08-30T01:04:40.761Z,995.94
2022-08-30T01:05:40.747Z,995.94
2022-08-30T01:06:40.774Z,995.95
2022-08-30T01:07:40.715Z,995.94
2022-08-30T01:08:40.716Z,995.94
2022-08-30T01:09:40.742Z,995.92
2022-08-30T01:10:40.748Z,995.92
2022-08-30T01:11:40.704Z,995.92
2022-08-30T01:12:40.701Z,995.92
2022-08-30T01:13:40.713Z,995.92
2022-08-30T01:14:40.724Z,995.94
2022-08-30T01:15:40.744Z,995.95
2022-08-30T01:16:40.692Z,995.93
2022-08-30T01:17:40.664Z,995.91
2022-08-30T01:18:40.667Z,995.97
2022-08-30T01:19:40.640Z,995.95
2022-08-30T01:20:40.665Z,995.98
2022-08-30T01:21:40.651Z,995.98
2022-08-30T01:22:40.619Z,996.01
2022-08-30T01:23:40.628Z,995.97
2022-08-30T01:24:40.646Z,995.99
2022-08-30T01:25:40.610Z,996.00
2022-08-30T01:26:40.601Z,996.01
2022-08-30T01:27:40.604Z,996.02
2022-08-30T01:28:40.617Z,995.99
2022-08-30T01:29:40.594Z,995.96
2022-08-30T01:30:40.644Z,995.96
2022-08-30T01:31:40.605Z,995.99
2022-08-30T01:32:40.564Z,995.98
2022-08-30T01:33:40.545Z,996.03
2022-08-30T01:34:40.546Z,996.04
2022-08-30T01:35:40.562Z,996.05
2022-08-30T01:36:44.686Z,996.06
2022-08-30T01:37:40.513Z,996.07
2022-08-30T01:38:40.553Z,996.06
2022-08-30T01:39:40.492Z,996.05
2022-08-30T01:40:40.542Z,996.07
2022-08-30T01:41:40.488Z,996.08
2022-08-30T01:42:40.487Z,996.03
2022-08-30T01:43:40.467Z,996.07
2022-08-30T01:44:40.461Z,996.11
2022-08-30T01:45:40.575Z,996.14
2022-08-30T01:46:40.503Z,996.12
2022-08-30T01:47:40.456Z,996.09
2022-08-30T01:48:40.439Z,996.09
2022-08-30T01:49:40.425Z,996.10
2022-08-30T01:50:41.413Z,996.12
2022-08-30T01:51:40.408Z,996.11
2022-08-30T01:52:40.419Z,996.11
2022-08-30T01:53:40.401Z,996.10
2022-08-30T01:54:40.418Z,996.13
2022-08-30T01:55:40.479Z,996.14
2022-08-30T01:56:40.626Z,996.16
2022-08-30T01:57:40.484Z,996.16
2022-08-30T01:58:40.417Z,996.17
2022-08-30T01:59:40.414Z,996.17
2022-08-30T02:00:40.364Z,996.17
2022-08-30T02:01:40.391Z,996.17
2022-08-30T02:02:40.322Z,996.17
2022-08-30T02:03:40.366Z,996.14
2022-08-30T02:04:40.339Z,996.15
2022-08-30T02:05:40.337Z,996.12
2022-08-30T02:06:40.284Z,996.11
2022-08-30T02:07:40.276Z,996.11
2022-08-30T02:08:40.302Z,996.09
2022-08-30T02:09:40.385Z,996.08
2022-08-30T02:10:40.283Z,996.09
2022-08-30T02:11:40.330Z,996.10
2022-08-30T02:12:40.292Z,996.13
2022-08-30T02:13:40.294Z,996.14
2022-08-30T02:14:41.335Z,996.14
2022-08-30T02:15:41.527Z,996.14
2022-08-30T02:16:40.290Z,996.11
2022-08-30T02:17:40.222Z,996.09
2022-08-30T02:18:40.294Z,996.09
2022-08-30T02:19:40.230Z,996.07
2022-08-30T02:20:40.207Z,996.06
2022-08-30T02:21:40.185Z,996.04
2022-08-30T02:22:40.191Z,996.08
2022-08-30T02:23:40.212Z,996.05
2022-08-30T02:24:40.190Z,996.07
2022-08-30T02:25:40.146Z,996.08
2022-08-30T02:26:40.161Z,996.06
2022-08-30T02:27:40.147Z,996.11
2022-08-30T02:28:42.895Z,996.10
2022-08-30T02:29:40.116Z,996.10
2022-08-30T02:30:40.298Z,996.08
2022-08-30T02:31:40.111Z,996.05
2022-08-30T02:32:40.108Z,996.06
2022-08-30T02:33:40.430Z,996.04
2022-08-30T02:34:40.094Z,996.02
2022-08-30T02:35:40.114Z,996.05
2022-08-30T02:36:40.076Z,995.99
2022-08-30T02:37:40.330Z,996.04
2022-08-30T02:38:40.057Z,996.01
2022-08-30T02:39:40.041Z,996.02
2022-08-30T02:40:40.171Z,996.01
2022-08-30T02:41:40.049Z,996.02
2022-08-30T02:42:40.041Z,996.05
2022-08-30T02:43:40.126Z,996.07
2022-08-30T02:44:40.034Z,996.09
2022-08-30T02:45:40.195Z,996.07
2022-08-30T02:46:40.029Z,996.03
2022-08-30T02:47:43.613Z,996.01
2022-08-30T02:48:40.028Z,995.99
2022-08-30T02:49:39.993Z,996.03
2022-08-30T02:50:40.030Z,995.99
2022-08-30T02:51:40.011Z,995.98
2022-08-30T02:52:39.977Z,996.00
2022-08-30T02:54:25.924Z,996.02
2022-08-30T02:55:26.170Z,996.05
2022-08-30T02:56:25.969Z,996.02
2022-08-30T02:57:26.228Z,996.03
2022-08-30T02:58:25.915Z,996.03
2022-08-30T02:59:25.911Z,996.09
2022-08-30T03:00:25.916Z,996.06
2022-08-30T03:01:29.255Z,996.10
2022-08-30T03:02:25.965Z,996.10
2022-08-30T03:03:25.957Z,996.03
2022-08-30T03:04:26.764Z,996.04
2022-08-30T03:05:25.940Z,996.03
2022-08-30T03:06:25.899Z,996.03
2022-08-30T03:07:25.927Z,996.05
2022-08-30T03:08:25.881Z,996.04
2022-08-30T03:09:25.839Z,996.03
2022-08-30T03:10:25.856Z,996.02
2022-08-30T03:11:26.015Z,996.04
2022-08-30T03:12:25.801Z,996.04
2022-08-30T03:13:25.800Z,996.02
2022-08-30T03:14:25.787Z,996.02
2022-08-30T03:15:25.781Z,996.00
2022-08-30T03:16:25.885Z,995.98
2022-08-30T03:17:25.762Z,995.97
2022-08-30T03:18:25.765Z,996.00
2022-08-30T03:19:25.761Z,996.04
2022-08-30T03:20:25.744Z,996.01
2022-08-30T03:21:25.830Z,996.02
2022-08-30T03:22:25.832Z,995.98
2022-08-30T03:23:25.772Z,995.97
2022-08-30T03:24:25.710Z,995.96
2022-08-30T03:25:25.876Z,995.96
2022-08-30T03:26:25.702Z,995.95
2022-08-30T03:27:25.738Z,995.93
2022-08-30T03:28:25.664Z,995.96
2022-08-30T03:29:26.306Z,995.95
2022-08-30T03:30:26.031Z,995.97
2022-08-30T03:31:25.733Z,995.97
2022-08-30T03:32:25.704Z,995.99
2022-08-30T03:33:25.632Z,995.97
2022-08-30T03:34:25.652Z,995.98
2022-08-30T03:35:25.979Z,996.02
2022-08-30T03:36:25.675Z,996.00
2022-08-30T03:37:27.428Z,996.02
2022-08-30T03:38:25.625Z,996.02
2022-08-30T03:39:26.019Z,996.01
2022-08-30T03:40:25.704Z,995.99
2022-08-30T03:41:25.636Z,996.01
2022-08-30T03:42:25.574Z,996.01
2022-08-30T03:43:25.634Z,995.97
2022-08-30T03:44:25.577Z,995.98
2022-08-30T03:45:25.747Z,995.97
2022-08-30T03:46:26.933Z,995.98
2022-08-30T03:47:25.554Z,995.97
2022-08-30T03:48:25.535Z,995.96
2022-08-30T03:49:25.828Z,995.95
2022-08-30T03:50:25.562Z,995.94
2022-08-30T03:51:25.497Z,995.95
2022-08-30T03:52:25.523Z,995.93
2022-08-30T03:53:27.242Z,995.98
2022-08-30T03:54:25.496Z,995.97
2022-08-30T03:55:25.620Z,995.97
2022-08-30T03:56:25.499Z,996.01
2022-08-30T03:57:25.502Z,996.00
2022-08-30T03:58:25.489Z,996.06
2022-08-30T03:59:25.471Z,996.03
2022-08-30T04:00:25.537Z,996.00
2022-08-30T04:01:25.670Z,995.99
2022-08-30T04:02:25.771Z,995.94
2022-08-30T04:03:25.610Z,995.94
2022-08-30T04:04:25.406Z,995.94
2022-08-30T04:05:25.560Z,996.00
2022-08-30T04:06:25.405Z,995.96
2022-08-30T04:07:25.362Z,995.98
2022-08-30T04:08:25.360Z,995.98
2022-08-30T04:09:25.594Z,995.97
2022-08-30T04:10:25.606Z,996.02
2022-08-30T04:11:25.650Z,995.98
2022-08-30T04:12:25.446Z,996.01
2022-08-30T04:13:25.313Z,995.98
2022-08-30T04:14:25.311Z,996.00
2022-08-30T04:15:25.665Z,996.04
2022-08-30T04:16:25.385Z,996.06
2022-08-30T04:17:25.300Z,996.07
2022-08-30T04:18:25.278Z,996.06
2022-08-30T04:19:25.506Z,996.04
2022-08-30T04:20:25.482Z,996.03
2022-08-30T04:21:25.518Z,996.06
2022-08-30T04:22:25.484Z,996.04
2022-08-30T04:23:25.378Z,996.04
2022-08-30T04:24:25.318Z,996.04
2022-08-30T04:25:25.383Z,996.08
2022-08-30T04:26:29.315Z,996.08
2022-08-30T04:27:25.232Z,996.09
2022-08-30T04:28:25.326Z,996.12
2022-08-30T04:29:25.225Z,996.14
2022-08-30T04:30:25.479Z,996.14
2022-08-30T04:31:25.571Z,996.15
2022-08-30T04:32:25.264Z,996.13
2022-08-30T04:33:25.217Z,996.13
2022-08-30T04:34:25.265Z,996.18
2022-08-30T04:35:25.339Z,996.20
2022-08-30T04:36:25.159Z,996.19
2022-08-30T04:37:25.196Z,996.20
2022-08-30T04:38:29.899Z,996.21
2022-08-30T04:39:25.143Z,996.27
2022-08-30T04:40:25.321Z,996.28
2022-08-30T04:41:25.196Z,996.29
2022-08-30T04:42:25.238Z,996.31
2022-08-30T04:43:25.087Z,996.32
2022-08-30T04:44:25.125Z,996.33
2022-08-30T04:45:25.191Z,996.35
2022-08-30T04:46:25.102Z,996.35
2022-08-30T04:47:25.090Z,996.34
2022-08-30T04:48:25.062Z,996.35
2022-08-30T04:49:25.049Z,996.35
2022-08-30T04:50:25.204Z,996.35
2022-08-30T04:51:25.078Z,996.37
2022-08-30T04:52:25.060Z,996.41
2022-08-30T04:53:25.059Z,996.42
2022-08-30T04:54:25.027Z,996.42
2022-08-30T04:55:25.561Z,996.41
2022-08-30T04:56:24.988Z,996.44
2022-08-30T04:57:25.003Z,996.44
2022-08-30T04:58:24.963Z,996.45
2022-08-30T04:59:25.031Z,996.45
2022-08-30T05:00:25.128Z,996.49
2022-08-30T05:01:25.069Z,996.51
2022-08-30T05:02:24.988Z,996.51
2022-08-30T05:03:25.113Z,996.55
2022-08-30T05:04:24.936Z,996.53
2022-08-30T05:05:25.045Z,996.53
2022-08-30T05:06:24.910Z,996.56
2022-08-30T05:07:25.097Z,996.55
2022-08-30T05:08:25.074Z,996.57
2022-08-30T05:09:24.976Z,996.56
2022-08-30T05:10:25.151Z,996.57
2022-08-30T05:11:24.918Z,996.57
2022-08-30T05:12:25.150Z,996.57
2022-08-30T05:13:35.355Z,996.54
2022-08-30T05:14:24.877Z,996.53
2022-08-30T05:15:25.088Z,996.57
2022-08-30T05:16:24.898Z,996.55
2022-08-30T05:17:24.850Z,996.58
2022-08-30T05:18:24.839Z,996.60
2022-08-30T05:19:24.818Z,996.58
2022-08-30T05:20:25.153Z,996.58
2022-08-30T05:21:24.825Z,996.56
2022-08-30T05:22:24.941Z,996.55
2022-08-30T05:23:24.810Z,996.51
2022-08-30T05:24:24.784Z,996.53
2022-08-30T05:25:24.853Z,996.60
2022-08-30T05:26:25.176Z,996.56
2022-08-30T05:27:24.782Z,996.56
2022-08-30T05:28:26.303Z,996.58
2022-08-30T05:29:24.749Z,996.60
2022-08-30T05:30:24.811Z,996.62
2022-08-30T05:31:24.887Z,996.62
2022-08-30T05:32:24.737Z,996.65
2022-08-30T05:33:24.752Z,996.66
2022-08-30T05:34:24.718Z,996.64
2022-08-30T05:35:25.909Z,996.65
2022-08-30T05:36:24.744Z,996.69
2022-08-30T05:37:24.719Z,996.71
2022-08-30T05:38:24.691Z,996.66
2022-08-30T05:39:24.706Z,996.71
2022-08-30T05:40:24.931Z,996.72
2022-08-30T05:41:26.493Z,996.76
2022-08-30T05:42:24.681Z,996.73
2022-08-30T05:43:26.835Z,996.78
2022-08-30T05:44:25.913Z,996.80
2022-08-30T05:45:24.816Z,996.83
2022-08-30T05:46:24.903Z,996.85
2022-08-30T05:47:24.633Z,996.83
2022-08-30T05:48:24.667Z,996.78
2022-08-30T05:49:24.664Z,996.84
2022-08-30T05:50:24.775Z,996.77
2022-08-30T05:51:24.601Z,996.81
2022-08-30T05:52:24.607Z,996.78
2022-08-30T05:53:24.614Z,996.78
2022-08-30T05:54:24.605Z,996.77
2022-08-30T05:55:24.932Z,996.77
2022-08-30T05:56:24.733Z,996.77
2022-08-30T05:57:24.556Z,996.75
2022-08-30T05:58:24.555Z,996.77
2022-08-30T05:59:24.536Z,996.77
2022-08-30T06:00:24.700Z,996.76
2022-08-30T06:01:24.652Z,996.73
2022-08-30T06:02:24.563Z,996.72
2022-08-30T06:03:24.571Z,996.73
2022-08-30T06:04:24.736Z,996.69
2022-08-30T06:05:24.665Z,996.70
2022-08-30T06:06:24.518Z,996.70
2022-08-30T06:07:24.480Z,996.73
2022-08-30T06:08:24.523Z,996.76
2022-08-30T06:09:24.540Z,996.77
2022-08-30T06:10:24.621Z,996.77
2022-08-30T06:11:24.520Z,996.76
2022-08-30T06:12:24.504Z,996.78
2022-08-30T06:13:24.552Z,996.80
2022-08-30T06:14:24.472Z,996.80
2022-08-30T06:15:24.627Z,996.83
2022-08-30T06:16:24.488Z,996.84
2022-08-30T06:17:24.469Z,996.87
2022-08-30T06:18:28.375Z,996.89
2022-08-30T06:19:24.698Z,996.88
2022-08-30T06:20:24.551Z,996.93
2022-08-30T06:21:24.427Z,996.90
2022-08-30T06:22:24.416Z,996.91
2022-08-30T06:23:24.443Z,996.93
2022-08-30T06:24:35.854Z,996.91
2022-08-30T06:25:24.771Z,996.91
2022-08-30T06:26:24.454Z,996.89
2022-08-30T06:27:24.375Z,996.93
2022-08-30T06:28:24.393Z,996.91
2022-08-30T06:29:24.362Z,996.89
2022-08-30T06:30:24.504Z,996.88
2022-08-30T06:31:24.456Z,996.90
2022-08-30T06:32:24.347Z,996.89
2022-08-30T06:33:24.379Z,996.88
2022-08-30T06:34:24.359Z,996.88
2022-08-30T06:35:24.471Z,996.84
2022-08-30T06:36:24.342Z,996.88
2022-08-30T06:37:29.102Z,996.89
2022-08-30T06:38:24.339Z,996.86
2022-08-30T06:39:24.350Z,996.87
2022-08-30T06:40:24.506Z,996.85
2022-08-30T06:41:24.339Z,996.86
2022-08-30T06:42:24.305Z,996.84
2022-08-30T06:43:24.324Z,996.85
2022-08-30T06:44:24.341Z,996.81
2022-08-30T06:45:24.425Z,996.79
2022-08-30T06:46:24.356Z,996.77
2022-08-30T06:47:24.301Z,996.79
2022-08-30T06:48:24.249Z,996.82
2022-08-30T06:49:24.252Z,996.82
2022-08-30T06:50:24.492Z,996.81
2022-08-30T06:51:24.290Z,996.81
2022-08-30T06:52:24.268Z,996.84
2022-08-30T06:53:24.263Z,996.83
2022-08-30T06:54:24.232Z,996.83
2022-08-30T06:55:24.382Z,996.83
2022-08-30T06:56:25.181Z,996.82
2022-08-30T06:57:24.225Z,996.85
2022-08-30T06:58:24.215Z,996.81
2022-08-30T06:59:24.195Z,996.83
2022-08-30T07:00:24.430Z,996.85
2022-08-30T07:01:24.272Z,996.85
2022-08-30T07:02:24.259Z,996.87
2022-08-30T07:03:24.215Z,996.82
2022-08-30T07:04:24.240Z,996.89
2022-08-30T07:05:24.362Z,996.90
2022-08-30T07:06:24.202Z,996.93
2022-08-30T07:07:24.207Z,996.92
2022-08-30T07:08:24.192Z,996.92
2022-08-30T07:09:24.213Z,996.91
2022-08-30T07:10:24.353Z,996.92
2022-08-30T07:11:26.742Z,996.92
2022-08-30T07:12:24.168Z,996.90
2022-08-30T07:13:24.161Z,996.86
2022-08-30T07:14:24.159Z,996.88
2022-08-30T07:15:24.298Z,996.88
2022-08-30T07:16:24.166Z,996.91
2022-08-30T07:17:24.129Z,996.93
2022-08-30T07:18:24.103Z,996.95
2022-08-30T07:19:24.142Z,996.93
2022-08-30T07:20:24.231Z,996.95
2022-08-30T07:21:24.119Z,996.98
2022-08-30T07:22:24.092Z,996.97
2022-08-30T07:23:24.090Z,996.96
2022-08-30T07:24:24.096Z,996.95
2022-08-30T07:25:24.237Z,996.96
2022-08-30T07:26:24.090Z,996.97
2022-08-30T07:27:24.109Z,996.95
2022-08-30T07:28:24.087Z,996.96
2022-08-30T07:29:24.081Z,996.99
2022-08-30T07:30:24.178Z,996.95
2022-08-30T07:31:24.080Z,997.01
2022-08-30T07:32:24.053Z,997.02
2022-08-30T07:33:24.066Z,997.00
2022-08-30T07:34:26.972Z,996.96
2022-08-30T07:35:24.197Z,996.99
2022-08-30T07:36:24.033Z,996.96
2022-08-30T07:37:24.043Z,996.94
2022-08-30T07:38:24.022Z,996.93
2022-08-30T07:39:24.015Z,996.92
2022-08-30T07:40:24.348Z,996.96
2022-08-30T07:41:24.065Z,996.91
2022-08-30T07:42:24.001Z,996.92
2022-08-30T07:43:24.153Z,996.91
2022-08-30T07:44:25.029Z,996.92
2022-08-30T07:45:24.169Z,996.93
2022-08-30T07:46:24.107Z,996.92
2022-08-30T07:47:23.993Z,996.96
2022-08-30T07:48:23.972Z,996.95
2022-08-30T07:49:23.997Z,996.97
2022-08-30T07:50:24.061Z,997.05
2022-08-30T07:51:23.990Z,997.21
2022-08-30T07:52:24.019Z,997.30
2022-08-30T07:53:24.015Z,997.32
2022-08-30T07:54:24.007Z,997.33
2022-08-30T07:55:24.147Z,997.33
2022-08-30T07:56:24.051Z,997.36
2022-08-30T07:57:24.019Z,997.42
2022-08-30T07:58:24.125Z,997.39
2022-08-30T07:59:24.002Z,997.39
2022-08-30T08:00:24.118Z,997.41
2022-08-30T08:01:24.026Z,997.46
2022-08-30T08:02:24.034Z,997.35
2022-08-30T08:03:23.971Z,997.23
2022-08-30T08:04:23.949Z,997.18
2022-08-30T08:05:24.929Z,997.18
2022-08-30T08:06:23.961Z,997.18
2022-08-30T08:07:23.946Z,997.21
2022-08-30T08:08:23.946Z,997.31
2022-08-30T08:09:24.072Z,997.28
2022-08-30T08:10:24.125Z,997.17
2022-08-30T08:11:23.963Z,997.12
2022-08-30T08:12:24.193Z,997.14
2022-08-30T08:13:23.995Z,997.14
2022-08-30T08:14:23.972Z,997.16
2022-08-30T08:15:24.097Z,997.22
2022-08-30T08:16:24.132Z,997.35
2022-08-30T08:17:23.953Z,997.23
2022-08-30T08:18:23.953Z,997.12
2022-08-30T08:19:24.005Z,997.11
2022-08-30T08:20:24.109Z,997.12
2022-08-30T08:21:23.991Z,997.11
2022-08-30T08:22:23.988Z,997.17
2022-08-30T08:23:24.179Z,997.18
2022-08-30T08:24:24.360Z,997.22
2022-08-30T08:25:24.146Z,997.22
2022-08-30T08:26:24.013Z,997.26
2022-08-30T08:27:24.005Z,997.23
2022-08-30T08:28:24.374Z,997.26
2022-08-30T08:29:26.620Z,997.25
2022-08-30T08:31:06.596Z,997.27
2022-08-30T08:32:06.474Z,997.26
2022-08-30T08:33:06.505Z,997.31
2022-08-30T08:34:06.665Z,997.33
2022-08-30T08:35:06.586Z,997.27
2022-08-30T08:36:09.355Z,997.27
2022-08-30T08:37:06.466Z,997.20
2022-08-30T08:38:06.502Z,997.21
2022-08-30T08:39:06.478Z,997.24
2022-08-30T08:40:06.687Z,997.16
2022-08-30T08:41:06.473Z,997.19
2022-08-30T08:42:10.294Z,997.18
2022-08-30T08:43:06.463Z,997.19
2022-08-30T08:44:06.484Z,997.19
2022-08-30T08:45:11.018Z,997.21
2022-08-30T08:46:06.507Z,997.19
2022-08-30T08:47:06.477Z,997.19
2022-08-30T08:48:06.521Z,997.20
2022-08-30T08:49:06.472Z,997.21
2022-08-30T08:50:06.648Z,997.19
2022-08-30T08:51:06.482Z,997.21
2022-08-30T08:52:06.537Z,997.17
2022-08-30T08:53:06.473Z,997.13
2022-08-30T08:54:06.513Z,997.16
2022-08-30T08:55:06.659Z,997.12
2022-08-30T08:56:06.512Z,997.12
2022-08-30T08:57:06.482Z,997.12
2022-08-30T08:58:06.533Z,997.18
2022-08-30T08:59:06.716Z,997.17
2022-08-30T09:00:06.664Z,997.18
2022-08-30T09:01:06.526Z,997.18
2022-08-30T09:02:06.472Z,997.20
2022-08-30T09:03:06.462Z,997.19
2022-08-30T09:04:06.530Z,997.18
2022-08-30T09:06:06.470Z,997.15
2022-08-30T09:07:06.456Z,997.13
2022-08-30T09:08:09.717Z,997.12
2022-08-30T09:09:06.660Z,997.13
2022-08-30T09:10:06.833Z,997.08
2022-08-30T09:11:06.472Z,997.08
2022-08-30T09:12:06.494Z,997.09
2022-08-30T09:13:06.523Z,997.08
2022-08-30T09:14:06.567Z,997.11
2022-08-30T09:15:06.630Z,997.09
2022-08-30T09:16:06.492Z,997.07
2022-08-30T09:17:06.561Z,997.03
2022-08-30T09:18:06.476Z,997.02
2022-08-30T09:19:06.577Z,997.07
2022-08-30T09:20:06.662Z,997.05
2022-08-30T09:21:06.453Z,997.06
2022-08-30T09:22:06.438Z,997.09
2022-08-30T09:23:06.494Z,997.06
2022-08-30T09:24:06.468Z,997.04
2022-08-30T09:25:06.589Z,997.02
2022-08-30T09:26:06.429Z,997.03
2022-08-30T09:27:06.465Z,997.01
2022-08-30T09:28:06.473Z,997.03
2022-08-30T09:29:06.435Z,997.02
2022-08-30T09:30:06.605Z,997.00
2022-08-30T09:31:11.373Z,997.00
2022-08-30T09:32:24.663Z,996.96
2022-08-30T09:33:06.424Z,996.93
2022-08-30T09:34:06.432Z,996.94
2022-08-30T09:35:06.999Z,996.92
2022-08-30T09:36:06.473Z,996.90
2022-08-30T09:37:06.431Z,996.91
2022-08-30T09:38:06.423Z,996.88
2022-08-30T09:39:06.413Z,996.90
2022-08-30T09:40:06.599Z,996.85
2022-08-30T09:41:06.441Z,996.87
2022-08-30T09:42:06.404Z,996.84
2022-08-30T09:43:06.414Z,996.86
2022-08-30T09:44:06.398Z,996.84
2022-08-30T09:45:06.553Z,996.85
2022-08-30T09:46:06.453Z,996.76
2022-08-30T09:47:06.451Z,996.78
2022-08-30T09:48:06.426Z,996.80
2022-08-30T09:49:06.422Z,996.81
2022-08-30T09:50:06.614Z,996.82
2022-08-30T09:51:06.435Z,996.85
2022-08-30T09:52:06.419Z,996.81
2022-08-30T09:53:06.423Z,996.80
2022-08-30T09:54:17.131Z,996.79
2022-08-30T09:55:06.519Z,996.83
2022-08-30T09:56:06.405Z,996.81
2022-08-30T09:57:12.677Z,996.81
2022-08-30T09:58:06.360Z,996.84
2022-08-30T09:59:06.451Z,996.80
2022-08-30T10:00:06.522Z,996.81
2022-08-30T10:01:06.428Z,996.80
2022-08-30T10:02:06.398Z,996.77
2022-08-30T10:03:06.380Z,996.71
2022-08-30T10:04:06.364Z,996.70
2022-08-30T10:05:06.736Z,996.70
2022-08-30T10:06:06.371Z,996.68
2022-08-30T10:07:06.364Z,996.69
2022-08-30T10:08:06.364Z,996.65
2022-08-30T10:09:06.344Z,996.67
2022-08-30T10:10:06.718Z,996.67
2022-08-30T10:11:06.586Z,996.70
2022-08-30T10:12:06.624Z,996.71
2022-08-30T10:13:06.561Z,996.67
2022-08-30T10:14:06.371Z,996.60
2022-08-30T10:15:06.503Z,996.62
2022-08-30T10:16:06.442Z,996.62
2022-08-30T10:17:06.495Z,996.58
2022-08-30T10:18:06.343Z,996.57
2022-08-30T10:19:06.605Z,996.61
2022-08-30T10:20:06.430Z,996.61
2022-08-30T10:21:06.352Z,996.62
2022-08-30T10:22:06.354Z,996.60
2022-08-30T10:23:06.344Z,996.59
2022-08-30T10:24:06.835Z,996.62
2022-08-30T10:25:06.599Z,996.60
2022-08-30T10:26:06.548Z,996.59
2022-08-30T10:27:06.334Z,996.57
2022-08-30T10:28:06.319Z,996.56
2022-08-30T10:29:06.297Z,996.54
2022-08-30T10:30:06.387Z,996.53
2022-08-30T10:31:06.332Z,996.50
2022-08-30T10:32:06.303Z,996.50
2022-08-30T10:33:06.332Z,996.53
2022-08-30T10:34:06.330Z,996.54
2022-08-30T10:35:06.474Z,996.54
2022-08-30T10:36:06.298Z,996.58
2022-08-30T10:37:06.344Z,996.50
2022-08-30T10:38:06.293Z,996.50
2022-08-30T10:39:06.286Z,996.54
2022-08-30T10:40:06.452Z,996.53
2022-08-30T10:41:06.307Z,996.53
2022-08-30T10:42:06.325Z,996.54
2022-08-30T10:43:06.282Z,996.49
2022-08-30T10:44:06.334Z,996.52
2022-08-30T10:45:06.423Z,996.50
2022-08-30T10:46:06.288Z,996.54
2022-08-30T10:47:06.289Z,996.54
2022-08-30T10:48:06.280Z,996.50
2022-08-30T10:49:06.285Z,996.50
2022-08-30T10:50:06.325Z,996.49
2022-08-30T10:51:06.284Z,996.51
2022-08-30T10:52:06.258Z,996.45
2022-08-30T10:53:06.270Z,996.52
2022-08-30T10:54:06.263Z,996.48
2022-08-30T10:55:06.436Z,996.45
2022-08-30T10:56:06.267Z,996.47
2022-08-30T10:57:06.250Z,996.48
2022-08-30T10:58:06.243Z,996.42
2022-08-30T10:59:06.269Z,996.54
2022-08-30T11:00:06.422Z,996.51
2022-08-30T11:01:06.361Z,996.47
2022-08-30T11:02:06.238Z,996.46
2022-08-30T11:03:06.305Z,996.53
2022-08-30T11:04:06.241Z,996.53
2022-08-30T11:05:06.423Z,996.51
2022-08-30T11:06:06.460Z,996.48
2022-08-30T11:07:09.807Z,996.50
2022-08-30T11:08:06.274Z,996.52
2022-08-30T11:09:06.245Z,996.50
2022-08-30T11:10:06.400Z,996.49
2022-08-30T11:11:06.282Z,996.51
2022-08-30T11:12:06.317Z,996.48
2022-08-30T11:13:06.222Z,996.50
2022-08-30T11:14:06.355Z,996.41
2022-08-30T11:15:06.402Z,996.43
2022-08-30T11:16:06.276Z,996.44
2022-08-30T11:17:06.240Z,996.46
2022-08-30T11:18:06.289Z,996.50
2022-08-30T11:19:06.244Z,996.46
2022-08-30T11:20:06.387Z,996.51
2022-08-30T11:21:06.254Z,996.48
2022-08-30T11:22:06.309Z,996.51
2022-08-30T11:23:06.288Z,996.49
2022-08-30T11:24:10.831Z,996.48
2022-08-30T11:25:09.874Z,996.47
2022-08-30T11:26:06.456Z,996.47
2022-08-30T11:27:06.365Z,996.47
2022-08-30T11:28:06.602Z,996.47
2022-08-30T11:29:06.568Z,996.41
2022-08-30T11:30:06.709Z,996.39
2022-08-30T11:31:06.657Z,996.41
2022-08-30T11:32:06.219Z,996.37
2022-08-30T11:33:09.457Z,996.34
2022-08-30T11:34:06.209Z,996.38
2022-08-30T11:35:06.352Z,996.41
2022-08-30T11:36:06.245Z,996.35
2022-08-30T11:37:10.090Z,996.35
2022-08-30T11:38:06.175Z,996.37
2022-08-30T11:39:06.231Z,996.37
2022-08-30T11:40:06.454Z,996.37
2022-08-30T11:41:06.215Z,996.35
2022-08-30T11:42:06.184Z,996.36
2022-08-30T11:43:06.250Z,996.34
2022-08-30T11:44:06.218Z,996.37
2022-08-30T11:45:06.394Z,996.35
2022-08-30T11:46:06.241Z,996.34
2022-08-30T11:47:06.194Z,996.33
2022-08-30T11:48:06.188Z,996.34
2022-08-30T11:49:06.180Z,996.33
2022-08-30T11:50:09.671Z,996.36
2022-08-30T11:51:06.189Z,996.34
2022-08-30T11:52:26.934Z,996.40
2022-08-30T11:53:06.201Z,996.34
2022-08-30T11:54:06.402Z,996.32
2022-08-30T11:55:06.986Z,996.33
2022-08-30T11:56:06.135Z,996.37
2022-08-30T11:57:06.144Z,996.32
2022-08-30T11:58:06.143Z,996.31
2022-08-30T11:59:06.171Z,996.28
2022-08-30T12:00:06.333Z,996.28
2022-08-30T12:01:09.972Z,996.29
2022-08-30T12:02:06.505Z,996.28
2022-08-30T12:03:06.292Z,996.30
2022-08-30T12:04:06.134Z,996.32
2022-08-30T12:05:06.823Z,996.31
2022-08-30T12:06:06.129Z,996.31
2022-08-30T12:07:06.165Z,996.33
2022-08-30T12:08:06.106Z,996.32
2022-08-30T12:09:08.313Z,996.27
2022-08-30T12:10:06.332Z,996.30
2022-08-30T12:11:06.157Z,996.29
2022-08-30T12:12:06.129Z,996.21
2022-08-30T12:13:06.299Z,996.19
2022-08-30T12:14:09.100Z,996.17
2022-08-30T12:15:06.167Z,996.17
2022-08-30T12:16:06.217Z,996.16
2022-08-30T12:17:06.087Z,996.12
2022-08-30T12:18:06.106Z,996.17
2022-08-30T12:19:06.110Z,996.12
2022-08-30T12:20:06.231Z,996.14
2022-08-30T12:21:06.071Z,996.14
2022-08-30T12:22:06.110Z,996.16
2022-08-30T12:23:06.140Z,996.11
2022-08-30T12:24:06.070Z,996.14
2022-08-30T12:25:06.221Z,996.14
2022-08-30T12:26:06.089Z,996.09
2022-08-30T12:27:06.060Z,996.10
2022-08-30T12:28:06.061Z,996.07
2022-08-30T12:29:06.061Z,996.09
2022-08-30T12:30:06.205Z,996.07
2022-08-30T12:31:06.047Z,996.11